Home > Products > Valid Products > TAF

000
FTUS44 KMAF 241700 RRA
TAFMAF
TAF
KMAF 241753Z 2418/2518 01015KT P6SM SKC
      TEMPO 2418/2420 36021G30KT 5SM BLDU
     FM242000 35011KT P6SM SKC
     FM250300 10007KT P6SM SKC=



000
FTUS44 KMAF 241700 AAA
TAFMAF
TAF AMD
KMAF 241714Z 2417/2512 35015KT 5SM BLDU SKC
      TEMPO 2417/2419 36021G30KT 2SM BLDU
     FM241900 35011KT P6SM SKC=



000
FTUS44 KMAF 241500 AAB
TAFMAF
TAF AMD
KMAF 241502Z 2415/2512 35015KT 5SM BLDU SKC
      TEMPO 2415/2417 36021G30KT 2SM BLDU
     FM241900 35011KT P6SM SKC=



000
FTUS44 KMAF 241300 AAA
TAFMAF
TAF AMD
KMAF 241318Z 2413/2512 33011KT P6SM SKC
      TEMPO 2414/2417 36021G30KT 3SM BLDU
     FM241900 35011KT P6SM SKC=



000
FTUS44 KMAF 241100
TAFMAF
TAF
KMAF 241125Z 2412/2512 33012KT P6SM SKC
     FM241400 36021G30KT P6SM SKC
      TEMPO 2414/2416 3SM BLDU
     FM241900 35011KT P6SM SKC=



000
FTUS44 KMAF 240500
TAFMAF
TAF
KMAF 240535Z 2406/2506 21013G19KT P6SM SKC
     FM241000 33011KT P6SM SKC
     FM241400 36020G28KT P6SM SKC
     FM241800 35011KT P6SM SKC=



000
FTUS44 KMAF 240300 AAB
TAFMAF
TAF AMD
KMAF 240320Z 2403/2424 20015KT P6SM SKC
     FM241200 34014KT P6SM SKC
     FM241500 35013KT P6SM SKC=



000
FTUS44 KMAF 240200 AAA
TAFMAF
TAF AMD
KMAF 240204Z 2402/2424 20016G26KT P6SM SCT200
     FM240300 26015KT P6SM SKC
     FM241200 34014KT P6SM SKC
     FM241500 35013KT P6SM SKC=



000
FTUS44 KMAF 232300
TAFMAF
TAF
KMAF 232321Z 2400/2424 23019KT P6SM SCT110 BKN250
     FM240100 23012KT P6SM SKC
     FM241200 34011KT P6SM SKC
     FM241500 04012G22KT P6SM SKC=



000
FTUS44 KMAF 232100 CCA
TAFMAF
TAF COR
KMAF 232141Z 2318/2418 22015G25KT P6SM SCT110 SCT250
     FM240100 22012KT P6SM SKC
     FM241200 34011KT P6SM SKC
     FM241500 04012G22KT P6SM SKC=



000
FTUS44 KMAF 232100 AAA
TAFMAF
TAF AMD
KMAF 232140Z 2322/2418 22015G25KT P6SM BKN250
     FM240100 22012KT P6SM SKC
     FM241200 34011KT P6SM SKC
     FM241500 04012G22KT P6SM SKC=



000
FTUS44 KMAF 231700
TAFMAF
TAF
KMAF 231727Z 2318/2418 21018G26KT P6SM FEW070 SCT250
     FM240200 20010KT P6SM SKC
     FM241300 34010KT P6SM SKC=



000
FTUS44 KMAF 231400 AAA
TAFMAF
TAF AMD
KMAF 231401Z 2314/2412 16011KT P6SM SCT120 BKN250
     FM231500 18019G27KT P6SM FEW120 BKN250
     FM231800 21018G26KT P6SM SCT070 SCT250
     FM240200 20010KT P6SM SKC=



000
FTUS44 KMAF 231100 CCA
TAFMAF
TAF COR
KMAF 231136Z 2312/2412 16011KT P6SM SCT130 BKN250 WS020/17035KT
     FM231400 18019G27KT P6SM FEW130 BKN250
     FM231800 21018G26KT P6SM SCT070 SCT250
     FM240200 20010KT P6SM SKC=



000
FTUS44 KMAF 231100
TAFMAF
TAF
KMAF 231120Z 2312/2412 17013KT P6SM SCT130 BKN250 WS020/17035KT
     FM231400 18019G27KT P6SM FEW130 BKN250
     FM231800 21018G26KT P6SM SCT070 SCT250
     FM240200 20010KT P6SM SKC=



000
FTUS44 KMAF 230500
TAFMAF
TAF
KMAF 230523Z 2306/2406 14014G20KT P6SM SKC
     FM231000 17010KT P6SM SCT130 BKN250 WS020/17035KT
     FM231400 18018G26KT P6SM FEW130 BKN250
     FM231800 21017G25KT P6SM SCT070 SCT250=



000
FTUS44 KMAF 230300 AAC
TAFMAF
TAF AMD
KMAF 230320Z 2303/2324 14015KT P6SM FEW200
     FM231200 18019KT P6SM SCT250
     FM231900 21020G30KT P6SM SCT070 SCT250=



000
FTUS44 KMAF 230200 AAB
TAFMAF
TAF AMD
KMAF 230225Z 2302/2324 15015KT P6SM FEW200
     FM231200 18019KT P6SM SCT250
     FM231900 21020G30KT P6SM SCT070 SCT250=



000
FTUS44 KMAF 230000 AAA
TAFMAF
TAF AMD
KMAF 230007Z 2300/2324 15013G22KT P6SM SCT080
     FM230100 15012KT P6SM FEW200
     FM231200 18015KT P6SM BKN120
     FM231900 22016G26KT P6SM SCT070 SCT250=



000
FTUS44 KMAF 222300
TAFMAF
TAF
KMAF 222340Z 2300/2324 15013G23KT P6SM SCT080
     FM230100 15012KT P6SM FEW200
     FM231200 18015KT P6SM BKN120
     FM231900 22016G26KT P6SM SCT070 SCT250=



000
FTUS44 KMAF 222100 AAA
TAFMAF
TAF AMD
KMAF 222139Z 2222/2318 15013G18KT P6SM SCT080
     FM230100 15012KT P6SM FEW200
     FM231200 18015KT P6SM BKN120=



000
FTUS44 KMAF 221700
TAFMAF
TAF
KMAF 221720Z 2218/2318 13010G19KT P6SM FEW080 SCT250
     FM231200 18015G25KT P6SM BKN250=



000
FTUS44 KMAF 221500 AAA
TAFMAF
TAF AMD
KMAF 221506Z 2215/2312 13010G18KT P6SM FEW080 SCT250=



000
FTUS44 KMAF 221100
TAFMAF
TAF
KMAF 221128Z 2212/2312 12010KT P6SM FEW250
     FM221500 14012G20KT P6SM FEW080 SCT250=



000
FTUS44 KMAF 220500
TAFMAF
TAF
KMAF 220525Z 2206/2306 09012KT P6SM FEW250
     FM221500 14012G20KT P6SM FEW080 SCT120 SCT250=



000
FTUS44 KMAF 212300
TAFMAF
TAF
KMAF 212325Z 2200/2224 01009KT P6SM SCT070 SCT250
     FM220300 08010KT P6SM FEW250
     FM221200 11012KT P6SM SCT250
     FM221600 15015G22KT P6SM SCT080 SCT250=



    US Dept of Commerce
    National Oceanic and Atmospheric Administration
    National Weather Service
    1325 East West Highway
    Silver Spring, MD 20910
    Page Author: NWS Internet Services Team
Disclaimer
Information Quality
Credits
Glossary
Privacy Policy
Freedom of Information Act (FOIA)
About Us
Career Opportunities